Terminal Aerodrome Forecast
Issued by NWS

Current Version | Previous Version | Graphics & Text | Print | Product List | Glossary On
Versions: 1 2 3 4 5 6 7 8 9 10 11 12 13 14 15 16 17 18
000
FTUS41 KILN 151300 AAA
TAFLUK
TAF AMD
KLUK 151341Z 1514/1612 33012G20KT P6SM BKN028
     FM151800 32012G20KT P6SM BKN040
     FM160000 00000KT P6SM SKC=

USA.gov is the U.S. government's official web portal to all federal, state and local government web resources and services.